createdAt,value
2019-05-21T00:01:37.546Z,97169.69
2019-05-21T00:04:09.512Z,97169.06
2019-05-21T00:06:41.862Z,97169.44
2019-05-21T00:09:13.832Z,97161.23
2019-05-21T00:11:45.866Z,97163.88
2019-05-21T00:14:17.814Z,97177.48
2019-05-21T00:16:50.076Z,97173.02
2019-05-21T00:19:22.032Z,97170.59
2019-05-21T00:21:54.398Z,97170.84
2019-05-21T00:24:26.375Z,97166.13
2019-05-21T00:26:58.510Z,97166.37
2019-05-21T00:30:24.320Z,97161.77
2019-05-21T00:33:49.696Z,97165.05
2019-05-21T00:37:19.930Z,97158.65
2019-05-21T00:40:45.564Z,97155.97
2019-05-21T00:43:18.980Z,97150.16
2019-05-21T00:45:51.620Z,97151.48
2019-05-21T00:48:23.562Z,97149.06
2019-05-21T00:50:55.540Z,97143.98
2019-05-21T00:53:27.632Z,97146.88
2019-05-21T00:55:59.990Z,97150.37
2019-05-21T00:58:32.074Z,97140.29
2019-05-21T01:01:04.146Z,97130.85
2019-05-21T01:03:36.114Z,97137.51
2019-05-21T01:06:08.130Z,97140.56
2019-05-21T01:08:40.492Z,97140.56
2019-05-21T01:11:12.454Z,97138.13
2019-05-21T01:13:44.425Z,97137.31
2019-05-21T01:16:16.408Z,97139.50
2019-05-21T01:18:48.373Z,97137.55
2019-05-21T01:21:20.354Z,97135.13
2019-05-21T01:23:52.308Z,97130.41
2019-05-21T01:26:24.283Z,97131.39
2019-05-21T01:28:56.221Z,97129.45
2019-05-21T01:31:28.189Z,97126.06
2019-05-21T01:34:00.408Z,97119.52
2019-05-21T01:36:32.373Z,97116.86
2019-05-21T01:39:05.483Z,97118.08
2019-05-21T01:41:37.860Z,97122.69
2019-05-21T01:44:09.812Z,97121.11
2019-05-21T01:46:41.762Z,97121.59
2019-05-21T01:49:13.784Z,97120.00
2019-05-21T01:51:45.750Z,97118.81
2019-05-21T01:54:17.780Z,97114.67
2019-05-21T01:56:50.288Z,97118.30
2019-05-21T01:59:22.277Z,97117.48
2019-05-21T02:01:54.277Z,97116.15
2019-05-21T02:04:26.226Z,97115.30
2019-05-21T02:06:58.314Z,97118.57
2019-05-21T02:09:32.196Z,97116.63
2019-05-21T02:12:04.159Z,97124.23
2019-05-21T02:14:36.134Z,97122.67
2019-05-21T02:17:08.077Z,97117.82
2019-05-21T02:19:40.302Z,97116.98
2019-05-21T02:22:12.333Z,97121.70
2019-05-21T02:24:44.264Z,97125.09
2019-05-21T02:27:16.246Z,97128.47
2019-05-21T02:29:48.174Z,97127.98
2019-05-21T02:32:20.141Z,97123.12
2019-05-21T02:34:52.087Z,97124.81
2019-05-21T02:37:24.085Z,97124.22
2019-05-21T02:39:56.109Z,97127.25
2019-05-21T02:42:28.292Z,97122.91
2019-05-21T02:45:00.238Z,97122.78
2019-05-21T02:47:32.183Z,97122.53
2019-05-21T02:50:04.140Z,97128.36
2019-05-21T02:52:36.155Z,97127.25
2019-05-21T02:55:08.560Z,97134.47
2019-05-21T02:57:41.937Z,97133.02
2019-05-21T03:00:38.411Z,97140.89
2019-05-21T03:03:08.452Z,97147.05
2019-05-21T03:05:40.620Z,97148.70
2019-05-21T03:08:12.552Z,97147.22
2019-05-21T03:10:44.493Z,97144.19
2019-05-21T03:13:16.474Z,97150.34
2019-05-21T03:15:48.430Z,97146.82
2019-05-21T03:18:20.798Z,97142.45
2019-05-21T03:20:52.768Z,97149.48
2019-05-21T03:23:25.004Z,97145.15
2019-05-21T03:25:56.957Z,97138.62
2019-05-21T03:28:28.901Z,97134.16
2019-05-21T03:31:01.273Z,97133.84
2019-05-21T03:33:33.257Z,97131.70
2019-05-21T03:36:05.213Z,97136.20
2019-05-21T03:38:37.198Z,97130.55
2019-05-21T03:41:09.168Z,97129.22
2019-05-21T03:43:41.159Z,97126.44
2019-05-21T03:46:13.119Z,97137.69
2019-05-21T03:48:45.075Z,97137.67
2019-05-21T03:51:17.116Z,97139.12
2019-05-21T03:53:49.126Z,97138.36
2019-05-21T03:56:21.219Z,97134.91
2019-05-21T03:58:53.189Z,97138.17
2019-05-21T04:01:25.200Z,97146.39
2019-05-21T04:03:57.205Z,97139.53
2019-05-21T04:06:29.167Z,97144.93
2019-05-21T04:09:01.256Z,97149.69
2019-05-21T04:11:33.229Z,97151.31
2019-05-21T04:14:05.256Z,97155.46
2019-05-21T04:16:45.291Z,97153.83
2019-05-21T04:19:21.072Z,97159.19
2019-05-21T04:21:56.088Z,97150.89
2019-05-21T04:24:28.074Z,97154.22
2019-05-21T04:27:00.309Z,97148.98
2019-05-21T04:29:32.653Z,97145.60
2019-05-21T04:32:04.603Z,97148.50
2019-05-21T04:34:36.634Z,97145.73
2019-05-21T04:37:11.361Z,97147.98
2019-05-21T04:39:42.324Z,97147.20
2019-05-21T04:42:14.313Z,97149.30
2019-05-21T04:44:46.351Z,97144.19
2019-05-21T04:47:18.334Z,97146.09
2019-05-21T04:49:50.270Z,97147.20
2019-05-21T04:52:22.258Z,97147.02
2019-05-21T04:54:54.224Z,97152.63
2019-05-21T04:57:26.168Z,97149.79
2019-05-21T04:59:58.121Z,97149.56
2019-05-21T05:02:30.357Z,97147.92
2019-05-21T05:05:02.328Z,97149.59
2019-05-21T05:07:34.266Z,97151.69
2019-05-21T05:10:07.108Z,97149.41
2019-05-21T05:12:39.074Z,97150.67
2019-05-21T05:15:11.318Z,97150.13
2019-05-21T05:17:43.314Z,97143.84
2019-05-21T05:20:15.404Z,97142.91
2019-05-21T05:22:47.463Z,97137.92
2019-05-21T05:25:19.900Z,97137.23
2019-05-21T05:27:51.964Z,97136.87
2019-05-21T05:30:23.966Z,97135.47
2019-05-21T05:32:55.951Z,97144.50
2019-05-21T05:35:27.949Z,97153.02
2019-05-21T05:40:30.550Z,97150.34
2019-05-21T05:43:02.507Z,97151.17
2019-05-21T05:45:34.476Z,97148.01
2019-05-21T05:48:06.549Z,97143.05
2019-05-21T05:50:40.572Z,97142.80
2019-05-21T05:53:13.483Z,97128.92
2019-05-21T05:55:45.545Z,97133.42
2019-05-21T05:58:17.550Z,97140.55
2019-05-21T06:00:50.025Z,97137.70
2019-05-21T06:03:22.127Z,97138.56
2019-05-21T06:05:54.316Z,97142.18
2019-05-21T06:08:26.320Z,97140.36
2019-05-21T06:10:58.329Z,97140.00
2019-05-21T06:13:30.293Z,97142.59
2019-05-21T06:16:02.304Z,97144.50
2019-05-21T06:18:35.654Z,97147.21
2019-05-21T06:21:07.967Z,97148.05
2019-05-21T06:23:39.928Z,97144.91
2019-05-21T06:26:11.893Z,97145.73
2019-05-21T06:28:43.923Z,97147.56
2019-05-21T06:31:15.917Z,97144.61
2019-05-21T06:33:47.924Z,97143.45
2019-05-21T06:36:20.245Z,97144.99
2019-05-21T06:38:52.221Z,97143.94
2019-05-21T06:41:24.254Z,97144.09
2019-05-21T06:44:02.215Z,97150.50
2019-05-21T06:46:34.203Z,97144.56
2019-05-21T06:49:06.144Z,97143.31
2019-05-21T06:51:38.160Z,97145.16
2019-05-21T06:54:10.174Z,97138.62
2019-05-21T06:56:42.218Z,97142.98
2019-05-21T06:59:14.162Z,97148.48
2019-05-21T07:01:46.149Z,97143.55
2019-05-21T07:04:18.144Z,97137.95
2019-05-21T07:06:50.425Z,97140.55
2019-05-21T07:09:22.370Z,97143.16
2019-05-21T07:11:54.348Z,97143.91
2019-05-21T07:14:26.341Z,97140.77
2019-05-21T07:16:58.311Z,97148.72
2019-05-21T07:19:30.259Z,97145.38
2019-05-21T07:22:11.996Z,97146.79
2019-05-21T07:24:35.987Z,97154.47
2019-05-21T07:27:07.986Z,97150.95
2019-05-21T07:29:40.206Z,97150.34
2019-05-21T07:32:12.182Z,97148.98
2019-05-21T07:34:44.339Z,97145.48
2019-05-21T07:37:16.580Z,97150.55
2019-05-21T07:39:48.539Z,97153.42
2019-05-21T07:42:20.526Z,97153.41
2019-05-21T07:44:52.622Z,97151.21
2019-05-21T07:47:24.659Z,97148.38
2019-05-21T07:49:56.595Z,97148.19
2019-05-21T07:52:28.627Z,97150.38
2019-05-21T07:55:00.849Z,97148.00
2019-05-21T07:57:32.827Z,97151.49
2019-05-21T08:00:05.453Z,97153.48
2019-05-21T08:02:37.489Z,97149.48
2019-05-21T08:05:09.555Z,97145.64
2019-05-21T08:07:41.510Z,97141.14
2019-05-21T08:10:13.594Z,97134.72
2019-05-21T08:12:45.590Z,97129.70
2019-05-21T08:15:17.527Z,97133.02
2019-05-21T08:17:49.566Z,97125.97
2019-05-21T08:20:23.544Z,97121.94
2019-05-21T08:22:55.544Z,97119.05
2019-05-21T08:25:27.511Z,97121.16
2019-05-21T08:27:59.501Z,97122.73
2019-05-21T08:30:31.473Z,97119.94
2019-05-21T08:33:03.520Z,97126.53
2019-05-21T08:35:38.324Z,97127.72
2019-05-21T08:38:10.317Z,97121.80
2019-05-21T08:40:42.233Z,97124.43
2019-05-21T08:43:14.252Z,97119.80
2019-05-21T08:45:46.339Z,97122.27
2019-05-21T08:48:18.316Z,97122.05
2019-05-21T08:50:50.698Z,97121.80
2019-05-21T08:53:22.751Z,97120.24
2019-05-21T08:55:54.732Z,97118.22
2019-05-21T08:58:26.717Z,97113.38
2019-05-21T09:00:58.686Z,97118.24
2019-05-21T09:03:30.623Z,97113.02
2019-05-21T09:06:02.613Z,97114.11
2019-05-21T09:08:34.609Z,97105.23
2019-05-21T09:11:06.578Z,97107.27
2019-05-21T09:13:38.576Z,97107.65
2019-05-21T09:16:10.951Z,97093.97
2019-05-21T09:18:42.932Z,97095.22
2019-05-21T09:21:14.976Z,97098.34
2019-05-21T09:23:46.910Z,97101.76
2019-05-21T09:26:18.954Z,97097.20
2019-05-21T09:28:51.546Z,97098.53
2019-05-21T09:31:23.527Z,97101.94
2019-05-21T09:33:55.510Z,97096.73
2019-05-21T09:36:28.161Z,97100.41
2019-05-21T09:39:00.492Z,97101.28
2019-05-21T09:41:32.494Z,97100.88
2019-05-21T09:44:04.592Z,97095.03
2019-05-21T09:46:36.707Z,97093.50
2019-05-21T09:49:08.740Z,97091.31
2019-05-21T09:51:40.697Z,97093.80
2019-05-21T09:54:12.701Z,97092.48
2019-05-21T09:56:44.678Z,97088.00
2019-05-21T09:59:35.530Z,97090.05
2019-05-21T10:02:17.103Z,97087.97
2019-05-21T10:04:49.160Z,97086.16
2019-05-21T10:07:38.221Z,97081.77
2019-05-21T10:09:54.982Z,97079.18
2019-05-21T10:12:26.932Z,97069.27
2019-05-21T10:14:58.973Z,97073.39
2019-05-21T10:17:30.991Z,97069.06
2019-05-21T10:20:03.045Z,97060.41
2019-05-21T10:22:35.050Z,97054.45
2019-05-21T10:25:07.711Z,97055.62
2019-05-21T10:27:39.749Z,97051.55
2019-05-21T10:30:13.295Z,97050.16
2019-05-21T10:32:45.280Z,97044.02
2019-05-21T10:35:17.398Z,97040.24
2019-05-21T10:37:54.862Z,97037.38
2019-05-21T10:40:23.368Z,97024.92
2019-05-21T10:42:55.350Z,97025.70
2019-05-21T10:49:27.464Z,97027.28
2019-05-21T10:51:59.434Z,97025.82
2019-05-21T10:54:31.441Z,97021.93
2019-05-21T10:57:03.414Z,97019.94
2019-05-21T10:59:35.402Z,97022.94
2019-05-21T11:02:23.443Z,97017.58
2019-05-21T11:05:05.598Z,97016.14
2019-05-21T11:07:37.586Z,97014.14
2019-05-21T11:10:10.335Z,97013.55
2019-05-21T11:12:42.390Z,97014.13
2019-05-21T11:15:14.907Z,97004.16
2019-05-21T11:17:59.145Z,97006.98
2019-05-21T11:20:21.499Z,97006.83
2019-05-21T11:22:53.539Z,97008.67
2019-05-21T11:25:25.506Z,97006.47
2019-05-21T11:27:57.501Z,97007.81
2019-05-21T11:30:29.536Z,97005.64
2019-05-21T11:33:01.497Z,97009.44
2019-05-21T11:35:35.968Z,97006.08
2019-05-21T11:38:07.129Z,97011.52
2019-05-21T11:40:39.069Z,97008.48
2019-05-21T11:43:11.184Z,97018.63
2019-05-21T11:45:43.676Z,97008.55
2019-05-21T11:48:15.748Z,97018.70
2019-05-21T11:50:47.708Z,97015.53
2019-05-21T11:53:19.654Z,97018.30
2019-05-21T11:55:51.610Z,97015.77
2019-05-21T11:58:23.652Z,97018.80
2019-05-21T12:00:55.700Z,97018.69
2019-05-21T12:03:27.679Z,97018.48
2019-05-21T12:05:59.711Z,97014.50
2019-05-21T12:08:31.670Z,97018.78
2019-05-21T12:11:03.630Z,97011.48
2019-05-21T12:13:35.647Z,97016.80
2019-05-21T12:16:07.626Z,97017.22
2019-05-21T12:18:40.275Z,97017.27
2019-05-21T12:21:12.330Z,97016.23
2019-05-21T12:23:44.365Z,97020.80
2019-05-21T12:26:16.356Z,97020.94
2019-05-21T12:28:48.374Z,97014.59
2019-05-21T12:31:20.631Z,97015.02
2019-05-21T12:33:52.694Z,97017.02
2019-05-21T12:36:24.806Z,97021.35
2019-05-21T12:39:11.638Z,97009.59
2019-05-21T12:41:30.855Z,97019.27
2019-05-21T12:44:02.855Z,97023.64
2019-05-21T12:46:34.858Z,97013.84
2019-05-21T12:49:06.836Z,97029.06
2019-05-21T12:51:38.914Z,97024.44
2019-05-21T12:54:10.896Z,97026.81
2019-05-21T12:56:42.876Z,97022.63
2019-05-21T12:59:14.893Z,97022.53
2019-05-21T13:01:46.846Z,97024.28
2019-05-21T13:04:18.864Z,97020.18
2019-05-21T13:06:51.264Z,97023.41
2019-05-21T13:09:32.167Z,97028.98
2019-05-21T13:11:57.043Z,97027.39
2019-05-21T13:14:29.011Z,97032.67
2019-05-21T13:17:01.256Z,97039.72
2019-05-21T13:19:33.230Z,97036.83
2019-05-21T13:22:05.393Z,97030.88
2019-05-21T13:24:37.393Z,97039.74
2019-05-21T13:27:09.444Z,97038.63
2019-05-21T13:29:41.398Z,97028.70
2019-05-21T13:32:13.448Z,97031.06
2019-05-21T13:34:45.763Z,97027.03
2019-05-21T13:37:17.752Z,97023.47
2019-05-21T13:39:50.684Z,97021.75
2019-05-21T13:42:23.025Z,97014.63
2019-05-21T13:44:55.170Z,97019.44
2019-05-21T13:47:27.175Z,97017.51
2019-05-21T13:49:59.366Z,97006.97
2019-05-21T13:52:31.478Z,97008.40
2019-05-21T13:55:03.525Z,97004.22
2019-05-21T13:57:35.582Z,97002.62
2019-05-21T14:00:13.702Z,96997.70
2019-05-21T14:02:46.044Z,97001.73
2019-05-21T14:05:18.172Z,97004.19
2019-05-21T14:07:50.156Z,97010.44
2019-05-21T14:10:22.184Z,97002.45
2019-05-21T14:12:54.206Z,97004.61
2019-05-21T14:15:26.182Z,97002.28
2019-05-21T14:17:58.125Z,97002.06
2019-05-21T14:20:30.371Z,97003.67
2019-05-21T14:23:02.396Z,97001.52
2019-05-21T14:25:34.603Z,96996.99
2019-05-21T14:28:06.774Z,96996.09
2019-05-21T14:30:38.830Z,96986.58
2019-05-21T14:33:11.091Z,96990.78
2019-05-21T14:35:43.094Z,96986.34
2019-05-21T14:38:15.061Z,96980.52
2019-05-21T14:40:47.060Z,96979.02
2019-05-21T14:43:19.105Z,96970.12
2019-05-21T14:45:51.282Z,96974.93
2019-05-21T14:48:23.242Z,96974.70
2019-05-21T14:50:55.293Z,96970.67
2019-05-21T14:53:27.352Z,96970.38
2019-05-21T14:55:59.293Z,96969.89
2019-05-21T14:58:31.427Z,96962.26
2019-05-21T15:01:03.554Z,96965.45
2019-05-21T15:03:35.626Z,96969.88
2019-05-21T15:06:07.584Z,96967.41
2019-05-21T15:08:40.191Z,96969.83
2019-05-21T15:11:12.216Z,96968.66
2019-05-21T15:13:44.183Z,96970.48
2019-05-21T15:16:16.148Z,96967.49
2019-05-21T15:18:48.338Z,96966.25
2019-05-21T15:21:26.052Z,96969.43
2019-05-21T15:23:58.128Z,96974.83
2019-05-21T15:26:30.338Z,96976.95
2019-05-21T15:29:02.441Z,96978.76
2019-05-21T15:31:34.402Z,96981.50
2019-05-21T15:34:06.464Z,96979.52
2019-05-21T15:36:38.425Z,96972.11
2019-05-21T15:39:10.755Z,96966.41
2019-05-21T15:41:42.678Z,96976.16
2019-05-21T15:44:14.854Z,96964.03
2019-05-21T15:46:50.138Z,96966.41
2019-05-21T15:49:34.963Z,96964.55
2019-05-21T15:51:54.667Z,96956.32
2019-05-21T15:54:26.931Z,96953.63
2019-05-21T15:56:58.868Z,96951.61
2019-05-21T15:59:31.282Z,96952.79
2019-05-21T16:02:03.546Z,96952.61
2019-05-21T16:04:35.613Z,96952.75
2019-05-21T16:07:07.548Z,96959.64
2019-05-21T16:09:39.872Z,96959.76
2019-05-21T16:12:11.998Z,96959.24
2019-05-21T16:14:45.933Z,96966.63
2019-05-21T16:17:18.485Z,96963.73
2019-05-21T16:19:50.804Z,96961.20
2019-05-21T16:22:24.651Z,96964.55
2019-05-21T16:24:56.703Z,96960.83
2019-05-21T16:27:28.705Z,96962.43
2019-05-21T16:30:01.467Z,96949.59
2019-05-21T16:32:33.625Z,96951.23
2019-05-21T16:35:05.802Z,96948.34
2019-05-21T16:37:37.965Z,96946.30
2019-05-21T16:40:10.975Z,96944.67
2019-05-21T16:42:44.930Z,96949.78
2019-05-21T16:45:17.263Z,96950.86
2019-05-21T16:47:49.488Z,96946.71
2019-05-21T16:50:21.576Z,96948.95
2019-05-21T16:52:53.641Z,96945.25
2019-05-21T16:55:25.697Z,96943.48
2019-05-21T16:57:57.665Z,96942.27
2019-05-21T17:00:30.261Z,96940.39
2019-05-21T17:03:03.394Z,96939.37
2019-05-21T17:05:35.395Z,96939.23
2019-05-21T17:08:07.440Z,96940.58
2019-05-21T17:10:39.416Z,96939.34
2019-05-21T17:13:11.379Z,96949.00
2019-05-21T17:15:43.472Z,96947.24
2019-05-21T17:18:15.487Z,96952.87
2019-05-21T17:20:47.547Z,96957.43
2019-05-21T17:23:20.018Z,96950.27
2019-05-21T17:25:52.126Z,96960.11
2019-05-21T17:28:24.121Z,96958.11
2019-05-21T17:30:56.112Z,96956.89
2019-05-21T17:33:28.091Z,96967.97
2019-05-21T17:36:00.079Z,96971.44
2019-05-21T17:38:32.066Z,96975.72
2019-05-21T17:41:03.999Z,96979.03
2019-05-21T17:43:36.054Z,96969.73
2019-05-21T17:46:08.033Z,96970.88
2019-05-21T17:48:40.618Z,96963.50
2019-05-21T17:51:12.579Z,96965.74
2019-05-21T17:53:44.586Z,96969.71
2019-05-21T17:56:16.559Z,96967.66
2019-05-21T17:58:48.649Z,96970.14
2019-05-21T18:01:21.436Z,96967.89
2019-05-21T18:03:54.119Z,96974.17
2019-05-21T18:06:26.502Z,96977.31
2019-05-21T18:08:58.670Z,96977.07
2019-05-21T18:11:30.723Z,96983.98
2019-05-21T18:14:02.991Z,96978.48
2019-05-21T18:16:35.389Z,96980.66
2019-05-21T18:19:08.646Z,96983.08
2019-05-21T18:21:41.453Z,96987.80
2019-05-21T18:24:13.484Z,96986.50
2019-05-21T18:26:45.792Z,96996.41
2019-05-21T18:29:17.779Z,96987.36
2019-05-21T18:31:50.051Z,96991.45
2019-05-21T18:34:22.167Z,96985.98
2019-05-21T18:36:54.526Z,96984.81
2019-05-21T18:39:26.558Z,96978.13
2019-05-21T18:41:58.525Z,96988.76
2019-05-21T18:44:31.004Z,96998.66
2019-05-21T18:47:03.029Z,97001.77
2019-05-21T18:49:35.081Z,97002.88
2019-05-21T18:52:07.114Z,97005.23
2019-05-21T18:54:39.096Z,97006.45
2019-05-21T18:57:11.280Z,97009.64
2019-05-21T18:59:43.739Z,97004.70
2019-05-21T19:02:16.305Z,97009.09
2019-05-21T19:04:48.376Z,97017.84
2019-05-21T19:07:20.899Z,97035.08
2019-05-21T19:09:52.871Z,97046.11
2019-05-21T19:12:36.960Z,97044.41
2019-05-21T19:14:58.709Z,97051.58
2019-05-21T19:17:35.507Z,97053.88
2019-05-21T19:20:06.780Z,97042.98
2019-05-21T19:22:38.822Z,97038.99
2019-05-21T19:25:10.909Z,97030.20
2019-05-21T19:27:43.046Z,97021.34
2019-05-21T19:30:15.508Z,97025.38
2019-05-21T19:32:47.662Z,97020.18
2019-05-21T19:35:20.141Z,97010.35
2019-05-21T19:37:52.133Z,97017.84
2019-05-21T19:40:24.086Z,97010.45
2019-05-21T19:42:56.202Z,97016.78
2019-05-21T19:45:31.311Z,97006.35
2019-05-21T19:48:01.992Z,96997.26
2019-05-21T19:50:34.331Z,96995.09
2019-05-21T19:53:06.304Z,96989.86
2019-05-21T19:55:38.993Z,97002.34
2019-05-21T19:58:11.071Z,96992.62
2019-05-21T20:00:49.694Z,96983.78
2019-05-21T20:03:22.554Z,96988.98
2019-05-21T20:05:55.419Z,96980.63
2019-05-21T20:08:28.577Z,96981.48
2019-05-21T20:11:01.054Z,96982.59
2019-05-21T20:13:33.106Z,96987.19
2019-05-21T20:16:06.191Z,96989.30
2019-05-21T20:18:38.151Z,96990.59
2019-05-21T20:21:11.133Z,96991.78
2019-05-21T20:23:44.197Z,96994.45
2019-05-21T20:26:19.655Z,96982.76
2019-05-21T20:28:52.023Z,96991.86
2019-05-21T20:31:25.248Z,96981.70
2019-05-21T20:33:57.298Z,96985.30
2019-05-21T20:36:29.974Z,96964.69
2019-05-21T20:39:02.373Z,96966.26
2019-05-21T20:41:34.378Z,96968.32
2019-05-21T20:44:08.590Z,96974.26
2019-05-21T20:46:41.552Z,96976.91
2019-05-21T20:49:13.544Z,96976.31
2019-05-21T20:51:45.978Z,96983.50
2019-05-21T20:54:19.620Z,96990.03
2019-05-21T20:56:52.016Z,96995.12
2019-05-21T20:59:23.981Z,96989.42
2019-05-21T21:01:57.305Z,96988.05
2019-05-21T21:04:30.687Z,96992.64
2019-05-21T21:07:03.389Z,96995.77
2019-05-21T21:09:36.392Z,96993.45
2019-05-21T21:12:09.762Z,96989.69
2019-05-21T21:14:43.504Z,96981.44
2019-05-21T21:17:17.191Z,96972.34
2019-05-21T21:19:49.156Z,96965.58
2019-05-21T21:22:21.270Z,96974.05
2019-05-21T21:24:53.828Z,96962.55
2019-05-21T21:27:26.278Z,96962.18
2019-05-21T21:29:58.229Z,96956.34
2019-05-21T21:32:30.903Z,96956.02
2019-05-21T21:35:03.281Z,96951.51
2019-05-21T21:37:35.408Z,96952.62
2019-05-21T21:40:10.290Z,96946.70
2019-05-21T21:42:42.794Z,96938.47
2019-05-21T21:45:15.777Z,96932.03
2019-05-21T21:47:47.718Z,96929.95
2019-05-21T21:50:20.113Z,96925.83
2019-05-21T21:52:52.065Z,96920.11
2019-05-21T21:55:24.180Z,96920.25
2019-05-21T21:57:56.157Z,96929.58
2019-05-21T22:01:29.152Z,96933.97
2019-05-21T22:04:04.688Z,96930.92
2019-05-21T22:06:39.348Z,96929.16
2019-05-21T22:09:24.610Z,96938.55
2019-05-21T22:11:57.436Z,96941.14
2019-05-21T22:14:30.099Z,96949.19
2019-05-21T22:17:02.260Z,96950.56
2019-05-21T22:19:34.880Z,96956.96
2019-05-21T22:22:07.485Z,96945.97
2019-05-21T22:24:39.744Z,96921.03
2019-05-21T22:27:11.716Z,96924.80
2019-05-21T22:29:43.867Z,96929.30
2019-05-21T22:32:16.822Z,96942.28
2019-05-21T22:34:48.877Z,96932.23
2019-05-21T22:37:23.719Z,96939.38
2019-05-21T22:39:55.758Z,96927.40
2019-05-21T22:42:28.304Z,96944.24
2019-05-21T22:45:08.068Z,96949.56
2019-05-21T22:47:35.500Z,96940.34
2019-05-21T22:50:09.274Z,96931.77
2019-05-21T22:52:41.235Z,96934.32
2019-05-21T22:55:13.412Z,96929.83
2019-05-21T22:57:45.533Z,96930.77
2019-05-21T23:00:17.900Z,96922.44
2019-05-21T23:02:49.890Z,96922.44
2019-05-21T23:05:23.117Z,96927.39
2019-05-21T23:07:55.671Z,96915.28
2019-05-21T23:10:28.061Z,96915.28
2019-05-21T23:13:00.746Z,96906.95
2019-05-21T23:15:32.710Z,96916.02
2019-05-21T23:18:05.346Z,96906.09
2019-05-21T23:20:38.221Z,96905.96
2019-05-21T23:23:10.345Z,96903.93
2019-05-21T23:25:43.662Z,96897.88
2019-05-21T23:28:16.107Z,96901.50
2019-05-21T23:30:48.862Z,96886.86
2019-05-21T23:33:21.577Z,96886.86
2019-05-21T23:35:53.837Z,96892.81
2019-05-21T23:38:26.275Z,96904.79
2019-05-21T23:40:58.285Z,96911.19
2019-05-21T23:43:31.016Z,96901.73
2019-05-21T23:46:03.090Z,96905.46
2019-05-21T23:48:35.631Z,96898.84
2019-05-21T23:51:07.608Z,96903.43
2019-05-21T23:53:40.813Z,96905.59
2019-05-21T23:56:13.163Z,96894.81
2019-05-21T23:58:47.976Z,96894.57
